MHV weather

Mojave Airport
Mojave, California, United States

Public forecast

Using degrees Fahrenheit for public forecast. Weather courtesy of forecast.io.

METAR (pilot weather report)

Retrieved 2019/04/19 07:40 UTC (16 minutes ago):

KMHV 190740Z AUTO 33008KT 10SM CLR 16/01 A3010 RMK A01

TAF (pilot weather forecast)

Closest forecast is Edwards Air Force Base, 16.1 nm (29.8 km) SE. Retrieved 2019/04/19 02:06 UTC (6 hours ago):

TAF KEDW 190203Z 1902/2008 22009KT 9999 FEW300 QNH3002INS BECMG 1907/1908 VRB06KT 9999 SCT180 QNH2995INS BECMG 1920/1921 22012G18KT 9999 SCT150 QNH2985INS BECMG 2002/2003 VRB06KT 9999 FEW120 QNH2983INS TX31/1921Z TN12/1912Z